sensor_id;sensor_type;location;lat;lon;timestamp;P1;durP1;ratioP1;P2;durP2;ratioP2
72301;SDS011;60235;52.234;5.186;2023-06-22T00:00:27;10.30;;;4.40;;
72301;SDS011;60235;52.234;5.186;2023-06-22T00:02:53;11.90;;;5.45;;
72301;SDS011;60235;52.234;5.186;2023-06-22T00:05:19;9.40;;;4.68;;
72301;SDS011;60235;52.234;5.186;2023-06-22T00:07:45;11.52;;;5.65;;
72301;SDS011;60235;52.234;5.186;2023-06-22T00:10:11;11.48;;;5.20;;
72301;SDS011;60235;52.234;5.186;2023-06-22T00:12:37;10.65;;;4.82;;
72301;SDS011;60235;52.234;5.186;2023-06-22T00:15:03;11.55;;;5.05;;
72301;SDS011;60235;52.234;5.186;2023-06-22T00:17:29;11.23;;;5.72;;
72301;SDS011;60235;52.234;5.186;2023-06-22T00:19:55;11.35;;;5.72;;
72301;SDS011;60235;52.234;5.186;2023-06-22T00:22:23;11.55;;;6.25;;
72301;SDS011;60235;52.234;5.186;2023-06-22T00:24:53;12.20;;;5.93;;
72301;SDS011;60235;52.234;5.186;2023-06-22T00:27:19;11.80;;;5.32;;
72301;SDS011;60235;52.234;5.186;2023-06-22T00:29:45;11.30;;;5.05;;
72301;SDS011;60235;52.234;5.186;2023-06-22T00:32:11;11.50;;;5.90;;
72301;SDS011;60235;52.234;5.186;2023-06-22T00:34:37;10.27;;;5.40;;
72301;SDS011;60235;52.234;5.186;2023-06-22T00:37:03;11.20;;;5.93;;
72301;SDS011;60235;52.234;5.186;2023-06-22T00:39:29;10.45;;;5.72;;
72301;SDS011;60235;52.234;5.186;2023-06-22T00:41:58;12.48;;;6.10;;
72301;SDS011;60235;52.234;5.186;2023-06-22T00:44:24;11.02;;;5.70;;
72301;SDS011;60235;52.234;5.186;2023-06-22T00:46:50;10.07;;;5.80;;
72301;SDS011;60235;52.234;5.186;2023-06-22T00:49:16;13.30;;;5.90;;
72301;SDS011;60235;52.234;5.186;2023-06-22T00:51:43;13.02;;;6.22;;
72301;SDS011;60235;52.234;5.186;2023-06-22T00:54:10;15.00;;;6.50;;
72301;SDS011;60235;52.234;5.186;2023-06-22T00:56:38;13.10;;;5.70;;
72301;SDS011;60235;52.234;5.186;2023-06-22T00:59:04;10.82;;;5.28;;
72301;SDS011;60235;52.234;5.186;2023-06-22T01:01:30;10.88;;;5.35;;
72301;SDS011;60235;52.234;5.186;2023-06-22T01:03:57;11.63;;;5.60;;
72301;SDS011;60235;52.234;5.186;2023-06-22T01:06:34;12.50;;;6.13;;
72301;SDS011;60235;52.234;5.186;2023-06-22T01:09:08;11.07;;;5.68;;
72301;SDS011;60235;52.234;5.186;2023-06-22T01:11:45;14.35;;;6.65;;
72301;SDS011;60235;52.234;5.186;2023-06-22T01:14:15;13.10;;;7.15;;
72301;SDS011;60235;52.234;5.186;2023-06-22T01:21:52;13.68;;;6.72;;
72301;SDS011;60235;52.234;5.186;2023-06-22T01:29:31;10.90;;;5.82;;
72301;SDS011;60235;52.234;5.186;2023-06-22T01:31:59;13.07;;;7.25;;
72301;SDS011;60235;52.234;5.186;2023-06-22T01:34:26;14.05;;;6.88;;
72301;SDS011;60235;52.234;5.186;2023-06-22T01:36:53;14.25;;;7.38;;
72301;SDS011;60235;52.234;5.186;2023-06-22T01:39:19;12.70;;;6.47;;
72301;SDS011;60235;52.234;5.186;2023-06-22T01:41:47;11.88;;;6.60;;
72301;SDS011;60235;52.234;5.186;2023-06-22T01:44:13;13.43;;;6.97;;
72301;SDS011;60235;52.234;5.186;2023-06-22T01:46:40;12.95;;;6.57;;
72301;SDS011;60235;52.234;5.186;2023-06-22T01:49:06;17.25;;;7.50;;
72301;SDS011;60235;52.234;5.186;2023-06-22T01:51:33;14.57;;;7.13;;
72301;SDS011;60235;52.234;5.186;2023-06-22T01:53:59;13.35;;;6.25;;
72301;SDS011;60235;52.234;5.186;2023-06-22T01:56:25;13.57;;;6.50;;
72301;SDS011;60235;52.234;5.186;2023-06-22T01:59:14;15.63;;;6.78;;
72301;SDS011;60235;52.234;5.186;2023-06-22T02:01:42;13.80;;;6.95;;
72301;SDS011;60235;52.234;5.186;2023-06-22T02:04:12;15.35;;;7.30;;
72301;SDS011;60235;52.234;5.186;2023-06-22T02:06:39;12.93;;;7.25;;
72301;SDS011;60235;52.234;5.186;2023-06-22T02:09:11;17.13;;;8.82;;
72301;SDS011;60235;52.234;5.186;2023-06-22T02:11:38;16.95;;;8.52;;
72301;SDS011;60235;52.234;5.186;2023-06-22T02:14:06;16.92;;;8.98;;
72301;SDS011;60235;52.234;5.186;2023-06-22T02:16:32;14.82;;;8.10;;
72301;SDS011;60235;52.234;5.186;2023-06-22T02:18:59;15.93;;;8.07;;
72301;SDS011;60235;52.234;5.186;2023-06-22T02:21:28;18.23;;;9.15;;
72301;SDS011;60235;52.234;5.186;2023-06-22T02:23:54;17.00;;;9.00;;
72301;SDS011;60235;52.234;5.186;2023-06-22T02:26:20;16.52;;;8.93;;
72301;SDS011;60235;52.234;5.186;2023-06-22T02:28:46;17.70;;;9.05;;
72301;SDS011;60235;52.234;5.186;2023-06-22T02:31:12;18.10;;;8.63;;
72301;SDS011;60235;52.234;5.186;2023-06-22T02:33:38;15.05;;;7.93;;
72301;SDS011;60235;52.234;5.186;2023-06-22T02:36:04;18.35;;;8.95;;
72301;SDS011;60235;52.234;5.186;2023-06-22T02:38:34;19.13;;;10.13;;
72301;SDS011;60235;52.234;5.186;2023-06-22T02:41:01;18.30;;;8.93;;
72301;SDS011;60235;52.234;5.186;2023-06-22T02:43:27;23.48;;;9.82;;
72301;SDS011;60235;52.234;5.186;2023-06-22T02:45:53;17.80;;;9.15;;
72301;SDS011;60235;52.234;5.186;2023-06-22T02:48:19;17.80;;;8.95;;
72301;SDS011;60235;52.234;5.186;2023-06-22T02:50:45;16.92;;;9.43;;
72301;SDS011;60235;52.234;5.186;2023-06-22T02:53:11;17.80;;;8.52;;
72301;SDS011;60235;52.234;5.186;2023-06-22T02:55:37;17.95;;;8.43;;
72301;SDS011;60235;52.234;5.186;2023-06-22T02:58:04;15.90;;;7.40;;
72301;SDS011;60235;52.234;5.186;2023-06-22T03:00:31;16.70;;;8.43;;
72301;SDS011;60235;52.234;5.186;2023-06-22T03:08:08;17.83;;;9.02;;
72301;SDS011;60235;52.234;5.186;2023-06-22T03:10:34;17.42;;;8.77;;
72301;SDS011;60235;52.234;5.186;2023-06-22T03:13:00;18.67;;;9.20;;
72301;SDS011;60235;52.234;5.186;2023-06-22T03:15:26;16.52;;;9.30;;
72301;SDS011;60235;52.234;5.186;2023-06-22T03:17:54;17.55;;;9.15;;
72301;SDS011;60235;52.234;5.186;2023-06-22T03:20:20;20.70;;;10.18;;
72301;SDS011;60235;52.234;5.186;2023-06-22T03:22:46;20.42;;;10.18;;
72301;SDS011;60235;52.234;5.186;2023-06-22T03:25:13;20.02;;;10.63;;
72301;SDS011;60235;52.234;5.186;2023-06-22T03:27:40;20.38;;;11.00;;
72301;SDS011;60235;52.234;5.186;2023-06-22T03:30:07;21.92;;;10.80;;
72301;SDS011;60235;52.234;5.186;2023-06-22T03:32:33;18.95;;;10.23;;
72301;SDS011;60235;52.234;5.186;2023-06-22T03:34:59;17.70;;;9.65;;
72301;SDS011;60235;52.234;5.186;2023-06-22T03:37:26;19.60;;;9.85;;
72301;SDS011;60235;52.234;5.186;2023-06-22T03:39:52;18.10;;;9.25;;
72301;SDS011;60235;52.234;5.186;2023-06-22T03:42:18;16.30;;;7.95;;
72301;SDS011;60235;52.234;5.186;2023-06-22T03:44:44;14.45;;;8.32;;
72301;SDS011;60235;52.234;5.186;2023-06-22T03:47:10;19.48;;;9.77;;
72301;SDS011;60235;52.234;5.186;2023-06-22T03:49:36;18.15;;;8.82;;
72301;SDS011;60235;52.234;5.186;2023-06-22T03:52:02;15.13;;;7.82;;
72301;SDS011;60235;52.234;5.186;2023-06-22T03:54:29;16.58;;;8.35;;
72301;SDS011;60235;52.234;5.186;2023-06-22T03:56:56;19.10;;;8.77;;
72301;SDS011;60235;52.234;5.186;2023-06-22T03:59:22;17.20;;;9.32;;
72301;SDS011;60235;52.234;5.186;2023-06-22T04:01:48;18.40;;;9.57;;
72301;SDS011;60235;52.234;5.186;2023-06-22T04:04:15;20.90;;;9.88;;
72301;SDS011;60235;52.234;5.186;2023-06-22T04:06:41;18.95;;;10.40;;
72301;SDS011;60235;52.234;5.186;2023-06-22T04:09:07;21.90;;;10.35;;
72301;SDS011;60235;52.234;5.186;2023-06-22T04:11:33;18.02;;;10.05;;
72301;SDS011;60235;52.234;5.186;2023-06-22T04:13:59;17.50;;;9.82;;
72301;SDS011;60235;52.234;5.186;2023-06-22T04:16:25;18.50;;;9.63;;
72301;SDS011;60235;52.234;5.186;2023-06-22T04:18:51;19.95;;;9.90;;
72301;SDS011;60235;52.234;5.186;2023-06-22T04:21:17;17.20;;;9.80;;
72301;SDS011;60235;52.234;5.186;2023-06-22T04:23:44;19.33;;;9.75;;
72301;SDS011;60235;52.234;5.186;2023-06-22T04:26:11;19.75;;;10.70;;
72301;SDS011;60235;52.234;5.186;2023-06-22T04:28:37;20.70;;;10.80;;
72301;SDS011;60235;52.234;5.186;2023-06-22T04:31:03;24.38;;;13.02;;
72301;SDS011;60235;52.234;5.186;2023-06-22T04:33:29;23.83;;;12.18;;
72301;SDS011;60235;52.234;5.186;2023-06-22T04:35:55;21.67;;;11.35;;
72301;SDS011;60235;52.234;5.186;2023-06-22T04:38:28;24.40;;;12.85;;
72301;SDS011;60235;52.234;5.186;2023-06-22T04:40:58;23.35;;;12.48;;
72301;SDS011;60235;52.234;5.186;2023-06-22T04:43:26;24.70;;;13.40;;
72301;SDS011;60235;52.234;5.186;2023-06-22T04:45:55;24.67;;;13.35;;
72301;SDS011;60235;52.234;5.186;2023-06-22T04:48:21;22.20;;;12.15;;
72301;SDS011;60235;52.234;5.186;2023-06-22T04:50:47;22.30;;;12.23;;
72301;SDS011;60235;52.234;5.186;2023-06-22T04:53:13;26.63;;;14.18;;
72301;SDS011;60235;52.234;5.186;2023-06-22T04:55:39;26.40;;;13.45;;
72301;SDS011;60235;52.234;5.186;2023-06-22T04:58:07;26.85;;;14.40;;
72301;SDS011;60235;52.234;5.186;2023-06-22T05:00:33;25.05;;;14.68;;
72301;SDS011;60235;52.234;5.186;2023-06-22T05:03:01;30.48;;;14.02;;
72301;SDS011;60235;52.234;5.186;2023-06-22T05:05:28;30.35;;;15.93;;
72301;SDS011;60235;52.234;5.186;2023-06-22T05:07:55;29.13;;;16.40;;
72301;SDS011;60235;52.234;5.186;2023-06-22T05:10:25;28.55;;;16.30;;
72301;SDS011;60235;52.234;5.186;2023-06-22T05:12:51;34.60;;;18.02;;
72301;SDS011;60235;52.234;5.186;2023-06-22T05:15:17;33.15;;;18.50;;
72301;SDS011;60235;52.234;5.186;2023-06-22T05:17:48;31.13;;;17.40;;
72301;SDS011;60235;52.234;5.186;2023-06-22T05:20:14;35.30;;;18.40;;
72301;SDS011;60235;52.234;5.186;2023-06-22T05:22:43;31.73;;;18.05;;
72301;SDS011;60235;52.234;5.186;2023-06-22T05:25:09;34.38;;;20.23;;
72301;SDS011;60235;52.234;5.186;2023-06-22T05:27:36;34.03;;;20.38;;
72301;SDS011;60235;52.234;5.186;2023-06-22T05:30:05;38.20;;;20.65;;
72301;SDS011;60235;52.234;5.186;2023-06-22T05:32:31;35.05;;;21.42;;
72301;SDS011;60235;52.234;5.186;2023-06-22T05:34:58;38.47;;;21.20;;
72301;SDS011;60235;52.234;5.186;2023-06-22T05:37:24;39.40;;;21.98;;
72301;SDS011;60235;52.234;5.186;2023-06-22T05:39:51;38.20;;;23.00;;
72301;SDS011;60235;52.234;5.186;2023-06-22T05:42:17;39.88;;;23.17;;
72301;SDS011;60235;52.234;5.186;2023-06-22T05:44:43;40.97;;;22.15;;
72301;SDS011;60235;52.234;5.186;2023-06-22T05:47:09;39.55;;;22.10;;
72301;SDS011;60235;52.234;5.186;2023-06-22T05:49:35;40.28;;;22.10;;
72301;SDS011;60235;52.234;5.186;2023-06-22T05:52:01;37.60;;;22.33;;
72301;SDS011;60235;52.234;5.186;2023-06-22T05:54:27;41.65;;;24.20;;
72301;SDS011;60235;52.234;5.186;2023-06-22T05:56:53;45.10;;;25.83;;
72301;SDS011;60235;52.234;5.186;2023-06-22T05:59:19;42.05;;;24.33;;
72301;SDS011;60235;52.234;5.186;2023-06-22T06:01:45;38.67;;;23.25;;
72301;SDS011;60235;52.234;5.186;2023-06-22T06:04:16;40.45;;;24.15;;
72301;SDS011;60235;52.234;5.186;2023-06-22T06:06:42;41.17;;;23.35;;
72301;SDS011;60235;52.234;5.186;2023-06-22T06:09:08;52.72;;;25.15;;
72301;SDS011;60235;52.234;5.186;2023-06-22T06:11:34;55.72;;;23.88;;
72301;SDS011;60235;52.234;5.186;2023-06-22T06:14:00;62.60;;;25.45;;
72301;SDS011;60235;52.234;5.186;2023-06-22T06:16:26;40.15;;;23.90;;
72301;SDS011;60235;52.234;5.186;2023-06-22T06:18:52;46.00;;;23.90;;
72301;SDS011;60235;52.234;5.186;2023-06-22T06:21:20;43.70;;;23.55;;
72301;SDS011;60235;52.234;5.186;2023-06-22T06:23:46;36.83;;;22.67;;
72301;SDS011;60235;52.234;5.186;2023-06-22T06:26:12;43.22;;;22.88;;
72301;SDS011;60235;52.234;5.186;2023-06-22T06:28:41;43.15;;;24.60;;
72301;SDS011;60235;52.234;5.186;2023-06-22T06:31:07;37.47;;;22.67;;
72301;SDS011;60235;52.234;5.186;2023-06-22T06:33:33;47.22;;;22.63;;
72301;SDS011;60235;52.234;5.186;2023-06-22T06:36:00;37.63;;;22.83;;
72301;SDS011;60235;52.234;5.186;2023-06-22T06:38:28;37.25;;;21.83;;
72301;SDS011;60235;52.234;5.186;2023-06-22T06:40:54;38.15;;;21.73;;
72301;SDS011;60235;52.234;5.186;2023-06-22T06:43:20;37.10;;;22.27;;
72301;SDS011;60235;52.234;5.186;2023-06-22T06:45:46;34.38;;;22.10;;
72301;SDS011;60235;52.234;5.186;2023-06-22T06:48:12;36.40;;;22.45;;
72301;SDS011;60235;52.234;5.186;2023-06-22T06:50:38;34.17;;;22.15;;
72301;SDS011;60235;52.234;5.186;2023-06-22T06:53:05;34.75;;;21.30;;
72301;SDS011;60235;52.234;5.186;2023-06-22T06:55:31;31.45;;;20.50;;
72301;SDS011;60235;52.234;5.186;2023-06-22T06:58:01;31.80;;;19.98;;
72301;SDS011;60235;52.234;5.186;2023-06-22T07:00:29;31.60;;;19.60;;
72301;SDS011;60235;52.234;5.186;2023-06-22T07:02:55;30.20;;;19.08;;
72301;SDS011;60235;52.234;5.186;2023-06-22T07:05:21;33.38;;;19.58;;
72301;SDS011;60235;52.234;5.186;2023-06-22T07:07:47;31.20;;;17.50;;
72301;SDS011;60235;52.234;5.186;2023-06-22T07:10:13;30.35;;;18.70;;
72301;SDS011;60235;52.234;5.186;2023-06-22T07:12:40;27.52;;;17.60;;
72301;SDS011;60235;52.234;5.186;2023-06-22T07:15:07;31.65;;;19.15;;
72301;SDS011;60235;52.234;5.186;2023-06-22T07:17:34;30.63;;;19.38;;
72301;SDS011;60235;52.234;5.186;2023-06-22T07:20:00;31.30;;;18.38;;
72301;SDS011;60235;52.234;5.186;2023-06-22T07:22:27;28.70;;;18.33;;
72301;SDS011;60235;52.234;5.186;2023-06-22T07:24:53;29.98;;;18.45;;
72301;SDS011;60235;52.234;5.186;2023-06-22T07:27:19;27.58;;;17.80;;
72301;SDS011;60235;52.234;5.186;2023-06-22T07:29:46;29.67;;;17.40;;
72301;SDS011;60235;52.234;5.186;2023-06-22T07:32:12;30.90;;;19.08;;
72301;SDS011;60235;52.234;5.186;2023-06-22T07:34:38;29.27;;;17.88;;
72301;SDS011;60235;52.234;5.186;2023-06-22T07:37:04;31.13;;;18.55;;
72301;SDS011;60235;52.234;5.186;2023-06-22T07:39:30;33.00;;;19.05;;
72301;SDS011;60235;52.234;5.186;2023-06-22T07:41:56;30.75;;;18.88;;
72301;SDS011;60235;52.234;5.186;2023-06-22T07:44:23;27.17;;;18.52;;
72301;SDS011;60235;52.234;5.186;2023-06-22T07:46:49;30.17;;;18.63;;
72301;SDS011;60235;52.234;5.186;2023-06-22T07:49:16;30.70;;;19.05;;
72301;SDS011;60235;52.234;5.186;2023-06-22T07:51:42;25.85;;;17.33;;
72301;SDS011;60235;52.234;5.186;2023-06-22T07:54:09;28.60;;;17.63;;
72301;SDS011;60235;52.234;5.186;2023-06-22T07:56:36;27.73;;;18.52;;
72301;SDS011;60235;52.234;5.186;2023-06-22T07:59:02;28.23;;;18.25;;
72301;SDS011;60235;52.234;5.186;2023-06-22T08:01:28;28.50;;;16.90;;
72301;SDS011;60235;52.234;5.186;2023-06-22T08:03:55;26.77;;;16.90;;
72301;SDS011;60235;52.234;5.186;2023-06-22T08:06:21;26.48;;;18.73;;
72301;SDS011;60235;52.234;5.186;2023-06-22T08:08:47;25.08;;;17.15;;
72301;SDS011;60235;52.234;5.186;2023-06-22T08:11:14;27.05;;;16.25;;
72301;SDS011;60235;52.234;5.186;2023-06-22T08:13:40;28.80;;;16.65;;
72301;SDS011;60235;52.234;5.186;2023-06-22T08:16:06;26.88;;;16.95;;
72301;SDS011;60235;52.234;5.186;2023-06-22T08:18:32;24.60;;;15.18;;
72301;SDS011;60235;52.234;5.186;2023-06-22T08:20:58;26.70;;;16.00;;
72301;SDS011;60235;52.234;5.186;2023-06-22T08:23:24;22.67;;;15.95;;
72301;SDS011;60235;52.234;5.186;2023-06-22T08:25:50;21.23;;;14.60;;
72301;SDS011;60235;52.234;5.186;2023-06-22T08:28:16;23.58;;;14.98;;
72301;SDS011;60235;52.234;5.186;2023-06-22T08:30:42;23.00;;;14.40;;
72301;SDS011;60235;52.234;5.186;2023-06-22T08:33:08;21.65;;;13.20;;
72301;SDS011;60235;52.234;5.186;2023-06-22T08:35:34;20.00;;;12.90;;
72301;SDS011;60235;52.234;5.186;2023-06-22T08:38:00;25.25;;;13.85;;
72301;SDS011;60235;52.234;5.186;2023-06-22T08:40:27;18.88;;;12.77;;
72301;SDS011;60235;52.234;5.186;2023-06-22T08:42:54;18.35;;;12.27;;
72301;SDS011;60235;52.234;5.186;2023-06-22T08:45:20;18.17;;;12.13;;
72301;SDS011;60235;52.234;5.186;2023-06-22T08:47:46;21.15;;;12.45;;
72301;SDS011;60235;52.234;5.186;2023-06-22T08:50:12;20.38;;;12.40;;
72301;SDS011;60235;52.234;5.186;2023-06-22T08:52:39;17.80;;;11.43;;
72301;SDS011;60235;52.234;5.186;2023-06-22T08:55:08;20.52;;;11.73;;
72301;SDS011;60235;52.234;5.186;2023-06-22T08:57:35;17.58;;;10.68;;
72301;SDS011;60235;52.234;5.186;2023-06-22T09:00:04;15.93;;;10.10;;
72301;SDS011;60235;52.234;5.186;2023-06-22T09:02:33;17.77;;;10.60;;
72301;SDS011;60235;52.234;5.186;2023-06-22T09:05:02;16.85;;;9.82;;
72301;SDS011;60235;52.234;5.186;2023-06-22T09:07:28;15.57;;;10.68;;
72301;SDS011;60235;52.234;5.186;2023-06-22T09:09:55;18.52;;;9.60;;
72301;SDS011;60235;52.234;5.186;2023-06-22T09:12:21;19.02;;;11.52;;
72301;SDS011;60235;52.234;5.186;2023-06-22T09:14:50;14.55;;;9.07;;
72301;SDS011;60235;52.234;5.186;2023-06-22T09:17:17;15.00;;;9.20;;
72301;SDS011;60235;52.234;5.186;2023-06-22T09:19:43;17.52;;;9.68;;
72301;SDS011;60235;52.234;5.186;2023-06-22T09:22:09;15.05;;;7.65;;
72301;SDS011;60235;52.234;5.186;2023-06-22T09:24:35;14.85;;;7.75;;
72301;SDS011;60235;52.234;5.186;2023-06-22T09:27:01;13.10;;;7.00;;
72301;SDS011;60235;52.234;5.186;2023-06-22T09:29:27;14.30;;;7.70;;
72301;SDS011;60235;52.234;5.186;2023-06-22T09:31:53;14.90;;;7.90;;
72301;SDS011;60235;52.234;5.186;2023-06-22T09:34:20;11.48;;;6.10;;
72301;SDS011;60235;52.234;5.186;2023-06-22T09:36:46;10.70;;;5.53;;
72301;SDS011;60235;52.234;5.186;2023-06-22T09:39:14;12.35;;;6.55;;
72301;SDS011;60235;52.234;5.186;2023-06-22T09:41:40;11.45;;;6.63;;
72301;SDS011;60235;52.234;5.186;2023-06-22T09:44:06;12.82;;;6.85;;
72301;SDS011;60235;52.234;5.186;2023-06-22T09:46:32;11.63;;;6.63;;
72301;SDS011;60235;52.234;5.186;2023-06-22T09:48:58;14.35;;;7.40;;
72301;SDS011;60235;52.234;5.186;2023-06-22T09:51:24;13.82;;;6.55;;
72301;SDS011;60235;52.234;5.186;2023-06-22T09:53:50;13.52;;;6.60;;
72301;SDS011;60235;52.234;5.186;2023-06-22T09:56:16;10.93;;;6.32;;
72301;SDS011;60235;52.234;5.186;2023-06-22T09:58:43;20.63;;;6.70;;
72301;SDS011;60235;52.234;5.186;2023-06-22T10:01:09;13.02;;;6.55;;
72301;SDS011;60235;52.234;5.186;2023-06-22T10:03:35;13.93;;;6.22;;
72301;SDS011;60235;52.234;5.186;2023-06-22T10:06:01;15.25;;;7.32;;
72301;SDS011;60235;52.234;5.186;2023-06-22T10:08:27;14.20;;;6.63;;
72301;SDS011;60235;52.234;5.186;2023-06-22T10:10:53;14.18;;;7.22;;
72301;SDS011;60235;52.234;5.186;2023-06-22T10:13:19;13.45;;;6.85;;
72301;SDS011;60235;52.234;5.186;2023-06-22T10:15:45;13.68;;;6.65;;
72301;SDS011;60235;52.234;5.186;2023-06-22T10:18:16;12.35;;;5.93;;
72301;SDS011;60235;52.234;5.186;2023-06-22T10:20:42;11.63;;;6.90;;
72301;SDS011;60235;52.234;5.186;2023-06-22T10:23:08;11.82;;;6.65;;
72301;SDS011;60235;52.234;5.186;2023-06-22T10:25:34;12.98;;;5.82;;
72301;SDS011;60235;52.234;5.186;2023-06-22T10:28:00;13.57;;;6.57;;
72301;SDS011;60235;52.234;5.186;2023-06-22T10:30:26;11.20;;;5.80;;
72301;SDS011;60235;52.234;5.186;2023-06-22T10:32:53;11.32;;;5.10;;
72301;SDS011;60235;52.234;5.186;2023-06-22T10:35:19;10.77;;;5.20;;
72301;SDS011;60235;52.234;5.186;2023-06-22T10:37:46;14.60;;;5.95;;
72301;SDS011;60235;52.234;5.186;2023-06-22T10:40:12;12.15;;;6.68;;
72301;SDS011;60235;52.234;5.186;2023-06-22T10:42:39;10.73;;;5.93;;
72301;SDS011;60235;52.234;5.186;2023-06-22T10:45:06;11.88;;;6.05;;
72301;SDS011;60235;52.234;5.186;2023-06-22T10:47:32;10.15;;;5.53;;
72301;SDS011;60235;52.234;5.186;2023-06-22T10:49:58;13.05;;;5.95;;
72301;SDS011;60235;52.234;5.186;2023-06-22T10:52:24;10.55;;;5.25;;
72301;SDS011;60235;52.234;5.186;2023-06-22T10:54:50;12.07;;;6.40;;
72301;SDS011;60235;52.234;5.186;2023-06-22T10:57:17;14.73;;;5.65;;
72301;SDS011;60235;52.234;5.186;2023-06-22T10:59:43;11.52;;;6.05;;
72301;SDS011;60235;52.234;5.186;2023-06-22T11:02:09;11.93;;;5.70;;
72301;SDS011;60235;52.234;5.186;2023-06-22T11:04:35;10.18;;;6.00;;
72301;SDS011;60235;52.234;5.186;2023-06-22T11:07:01;15.18;;;6.10;;
72301;SDS011;60235;52.234;5.186;2023-06-22T11:09:27;11.30;;;5.88;;
72301;SDS011;60235;52.234;5.186;2023-06-22T11:11:53;10.00;;;5.38;;
72301;SDS011;60235;52.234;5.186;2023-06-22T11:14:19;10.70;;;5.25;;
72301;SDS011;60235;52.234;5.186;2023-06-22T11:16:46;13.82;;;6.13;;
72301;SDS011;60235;52.234;5.186;2023-06-22T11:19:12;11.57;;;6.07;;
72301;SDS011;60235;52.234;5.186;2023-06-22T11:21:38;9.35;;;5.30;;
72301;SDS011;60235;52.234;5.186;2023-06-22T11:24:04;12.95;;;5.70;;
72301;SDS011;60235;52.234;5.186;2023-06-22T11:26:30;13.77;;;6.38;;
72301;SDS011;60235;52.234;5.186;2023-06-22T11:28:57;12.88;;;5.22;;
72301;SDS011;60235;52.234;5.186;2023-06-22T11:31:23;12.15;;;5.45;;
72301;SDS011;60235;52.234;5.186;2023-06-22T11:33:49;11.23;;;5.47;;
72301;SDS011;60235;52.234;5.186;2023-06-22T11:36:15;11.40;;;5.40;;
72301;SDS011;60235;52.234;5.186;2023-06-22T11:38:44;12.35;;;5.55;;
72301;SDS011;60235;52.234;5.186;2023-06-22T11:41:10;11.80;;;5.30;;
72301;SDS011;60235;52.234;5.186;2023-06-22T11:43:36;10.82;;;6.13;;
72301;SDS011;60235;52.234;5.186;2023-06-22T11:46:03;11.88;;;6.25;;
72301;SDS011;60235;52.234;5.186;2023-06-22T11:48:29;13.40;;;6.65;;
72301;SDS011;60235;52.234;5.186;2023-06-22T11:50:55;12.85;;;6.75;;
72301;SDS011;60235;52.234;5.186;2023-06-22T11:53:22;15.05;;;8.27;;
72301;SDS011;60235;52.234;5.186;2023-06-22T11:55:48;13.32;;;6.80;;
72301;SDS011;60235;52.234;5.186;2023-06-22T11:58:14;12.93;;;7.15;;
72301;SDS011;60235;52.234;5.186;2023-06-22T12:00:40;11.27;;;7.63;;
72301;SDS011;60235;52.234;5.186;2023-06-22T12:03:06;15.18;;;7.85;;
72301;SDS011;60235;52.234;5.186;2023-06-22T12:05:32;14.45;;;8.38;;
72301;SDS011;60235;52.234;5.186;2023-06-22T12:07:58;15.02;;;8.32;;
72301;SDS011;60235;52.234;5.186;2023-06-22T12:10:25;12.98;;;8.13;;
72301;SDS011;60235;52.234;5.186;2023-06-22T12:12:51;16.40;;;9.70;;
72301;SDS011;60235;52.234;5.186;2023-06-22T12:15:17;16.23;;;9.45;;
72301;SDS011;60235;52.234;5.186;2023-06-22T12:17:43;14.80;;;9.57;;
72301;SDS011;60235;52.234;5.186;2023-06-22T12:20:09;19.25;;;10.43;;
72301;SDS011;60235;52.234;5.186;2023-06-22T12:22:36;16.52;;;9.73;;
72301;SDS011;60235;52.234;5.186;2023-06-22T12:25:02;18.67;;;11.73;;
72301;SDS011;60235;52.234;5.186;2023-06-22T12:27:29;17.58;;;11.13;;
72301;SDS011;60235;52.234;5.186;2023-06-22T12:29:55;18.23;;;10.57;;
72301;SDS011;60235;52.234;5.186;2023-06-22T12:32:21;18.42;;;11.73;;
72301;SDS011;60235;52.234;5.186;2023-06-22T12:34:47;18.90;;;10.90;;
72301;SDS011;60235;52.234;5.186;2023-06-22T12:37:13;16.98;;;11.20;;
72301;SDS011;60235;52.234;5.186;2023-06-22T12:39:43;16.95;;;11.07;;
72301;SDS011;60235;52.234;5.186;2023-06-22T12:42:09;19.08;;;11.02;;
72301;SDS011;60235;52.234;5.186;2023-06-22T12:44:37;17.67;;;10.75;;
72301;SDS011;60235;52.234;5.186;2023-06-22T12:47:04;21.60;;;11.02;;
72301;SDS011;60235;52.234;5.186;2023-06-22T12:49:30;17.55;;;10.77;;
72301;SDS011;60235;52.234;5.186;2023-06-22T12:51:56;17.67;;;10.25;;
72301;SDS011;60235;52.234;5.186;2023-06-22T12:54:22;17.15;;;10.02;;
72301;SDS011;60235;52.234;5.186;2023-06-22T12:56:49;17.77;;;9.50;;
72301;SDS011;60235;52.234;5.186;2023-06-22T12:59:16;16.95;;;9.35;;
72301;SDS011;60235;52.234;5.186;2023-06-22T13:01:42;16.00;;;9.07;;
72301;SDS011;60235;52.234;5.186;2023-06-22T13:04:10;14.25;;;8.57;;
72301;SDS011;60235;52.234;5.186;2023-06-22T13:06:39;23.33;;;8.65;;
72301;SDS011;60235;52.234;5.186;2023-06-22T13:09:05;83.43;;;13.88;;
72301;SDS011;60235;52.234;5.186;2023-06-22T13:11:31;20.67;;;7.53;;
72301;SDS011;60235;52.234;5.186;2023-06-22T13:13:57;16.00;;;7.47;;
72301;SDS011;60235;52.234;5.186;2023-06-22T13:16:23;15.50;;;7.50;;
72301;SDS011;60235;52.234;5.186;2023-06-22T13:18:49;13.68;;;7.25;;
72301;SDS011;60235;52.234;5.186;2023-06-22T13:21:15;30.90;;;9.90;;
72301;SDS011;60235;52.234;5.186;2023-06-22T13:23:41;14.68;;;8.70;;
72301;SDS011;60235;52.234;5.186;2023-06-22T13:26:07;15.98;;;8.05;;
72301;SDS011;60235;52.234;5.186;2023-06-22T13:28:33;21.92;;;9.23;;
72301;SDS011;60235;52.234;5.186;2023-06-22T13:30:59;19.60;;;8.35;;
72301;SDS011;60235;52.234;5.186;2023-06-22T13:33:25;27.67;;;9.65;;
72301;SDS011;60235;52.234;5.186;2023-06-22T13:35:51;14.75;;;8.40;;
72301;SDS011;60235;52.234;5.186;2023-06-22T13:38:17;16.17;;;8.57;;
72301;SDS011;60235;52.234;5.186;2023-06-22T13:40:43;14.75;;;9.40;;
72301;SDS011;60235;52.234;5.186;2023-06-22T13:43:09;16.95;;;8.73;;
72301;SDS011;60235;52.234;5.186;2023-06-22T13:45:35;22.40;;;9.32;;
72301;SDS011;60235;52.234;5.186;2023-06-22T13:48:01;16.40;;;9.95;;
72301;SDS011;60235;52.234;5.186;2023-06-22T13:50:27;18.95;;;9.60;;
72301;SDS011;60235;52.234;5.186;2023-06-22T13:52:54;16.13;;;9.63;;
72301;SDS011;60235;52.234;5.186;2023-06-22T13:55:21;16.27;;;9.32;;
72301;SDS011;60235;52.234;5.186;2023-06-22T13:57:48;16.30;;;9.30;;
72301;SDS011;60235;52.234;5.186;2023-06-22T14:00:14;17.83;;;8.85;;
72301;SDS011;60235;52.234;5.186;2023-06-22T14:02:40;16.63;;;9.77;;
72301;SDS011;60235;52.234;5.186;2023-06-22T14:05:07;18.80;;;10.88;;
72301;SDS011;60235;52.234;5.186;2023-06-22T14:07:33;15.15;;;9.75;;
72301;SDS011;60235;52.234;5.186;2023-06-22T14:09:59;15.20;;;9.23;;
72301;SDS011;60235;52.234;5.186;2023-06-22T14:12:26;16.90;;;10.27;;
72301;SDS011;60235;52.234;5.186;2023-06-22T14:14:52;16.73;;;9.75;;
72301;SDS011;60235;52.234;5.186;2023-06-22T14:17:18;17.38;;;9.88;;
72301;SDS011;60235;52.234;5.186;2023-06-22T14:19:49;17.52;;;10.40;;
72301;SDS011;60235;52.234;5.186;2023-06-22T14:22:17;19.55;;;11.30;;
72301;SDS011;60235;52.234;5.186;2023-06-22T14:24:43;17.85;;;10.93;;
72301;SDS011;60235;52.234;5.186;2023-06-22T14:27:09;17.80;;;9.82;;
72301;SDS011;60235;52.234;5.186;2023-06-22T14:29:35;15.98;;;10.27;;
72301;SDS011;60235;52.234;5.186;2023-06-22T14:32:01;18.35;;;9.93;;
72301;SDS011;60235;52.234;5.186;2023-06-22T14:34:27;17.55;;;11.57;;
72301;SDS011;60235;52.234;5.186;2023-06-22T14:36:53;18.20;;;10.63;;
72301;SDS011;60235;52.234;5.186;2023-06-22T14:39:19;19.10;;;11.18;;